ROMMA est une association bénévole à but non lucratif. Votre soutien est indispensable : ADHERER à ROMMA ou FAIRE un DON

Crest - (26, Drôme)

Vallée de la Drôme (315 m)   Longitude: 5°2' E   Latitude: 44°44' N Station partenaire n°62
 

Détail journalier du     <<     >>

Température Precipitation Humidité Pression Vent Dir Rafale Dir. rafale Ensol.
Heure (°C) (mm) (%) (hPa) (km/h) (km/h) (min)
01:00 21.7063101603SE0
02:00 20.8064101603SE0
03:00 19.906810161SE6SE0
04:00 19.107110161SE10SE0
05:00 18.407310161SE5SE0
06:00 18.107510151SSO6SO0
07:00 17.907510151SSE6SE0
08:00 18.207410151SE6SE0
09:00 21.206510163SSO11S26
10:00 21.906310162SE10S25
11:00 23.406110162ENE8SSO0
12:00 24.905910162ESE10E2
13:00 25.605510153SE11SE0
14:00 27.604510154SE15SE0
15:00 28.203810154ESE10ESE0
16:00 29.203410144ESE15SE4
17:00 25.2050101514ENE35ENE5
18:00 24.3057101511ENE24ENE0
19:00 24.805610156ENE18ENE0
20:00 24.405710157ENE19ENE0
21:00 22.307310161ENE8SE0
22:00 22.506910161NE6NE0
23:00 21.806610161SSO6SSO0
minuit 20.4077101706SE0

Graphique du 28-08-2019

 

Serveur OMMA